PHSTW EHTE-EHTE

Flight info

Callsign PHSTW
Flight time 0h 3m
Altitude 1500
Route DCT
Aircraft C172/L-SFG/C

Departure

Time 2026-04-29 14:33
Airport Teuge Airport (EHTE)

Arrival

Time 2026-04-29 14:36
Airport Teuge Airport (EHTE)
Time Latitude Longitude Altitude Speed Heading
2026-04-29 14:21 52.24120 6.05142 17 ft 0 kts 271°
2026-04-29 14:24 52.24110 6.05089 17 ft 0 kts 304°
2026-04-29 14:24 52.24121 6.05082 17 ft 0 kts 319°
2026-04-29 14:28 52.24137 6.05052 17 ft 7 kts 289°
2026-04-29 14:28 52.24151 6.04999 17 ft 5 kts
2026-04-29 14:29 52.24186 6.04996 17 ft 4 kts 321°
2026-04-29 14:29 52.24185 6.04906 17 ft 12 kts 266°
2026-04-29 14:29 52.24179 6.04761 17 ft 13 kts 264°
2026-04-29 14:29 52.24173 6.04626 17 ft 12 kts 266°
2026-04-29 14:30 52.24166 6.04500 17 ft 11 kts 265°
2026-04-29 14:30 52.24161 6.04390 16 ft 9 kts 265°
2026-04-29 14:30 52.24157 6.04291 16 ft 8 kts 264°
2026-04-29 14:30 52.24185 6.04231 16 ft 6 kts 328°
2026-04-29 14:31 52.24219 6.04191 17 ft 6 kts 322°
2026-04-29 14:31 52.24246 6.04196 16 ft 4 kts 83°
2026-04-29 14:31 52.24246 6.04197 16 ft 0 kts 84°
2026-04-29 14:31 52.24248 6.04244 16 ft 21 kts 85°
2026-04-29 14:32 52.24272 6.04750 17 ft 64 kts 85°
2026-04-29 14:32 52.24315 6.05549 177 ft 71 kts 85°
2026-04-29 14:32 52.24351 6.06336 420 ft 70 kts 85°
2026-04-29 14:32 52.24466 6.07121 581 ft 80 kts 56°
2026-04-29 14:33 52.25005 6.07569 794 ft 93 kts 32°
2026-04-29 14:33 52.25586 6.08048 1050 ft 93 kts 37°
2026-04-29 14:33 52.26230 6.08382 1216 ft 107 kts
2026-04-29 14:33 52.26786 6.07509 1423 ft 137 kts 280°
2026-04-29 14:34 52.26637 6.05893 962 ft 146 kts 257°
2026-04-29 14:34 52.26365 6.04428 790 ft 125 kts 250°
2026-04-29 14:34 52.26141 6.03128 669 ft 115 kts 252°
2026-04-29 14:34 52.25835 6.02014 622 ft 99 kts 221°
2026-04-29 14:35 52.25242 6.01616 472 ft 96 kts 170°
2026-04-29 14:35 52.24601 6.01718 377 ft 86 kts 152°
2026-04-29 14:35 52.24236 6.02345 311 ft 78 kts 105°
2026-04-29 14:35 52.24195 6.03037 232 ft 50 kts 86°
2026-04-29 14:36 52.24217 6.03625 112 ft 51 kts 86°
2026-04-29 14:36 52.24244 6.04167 27 ft 45 kts 86°
2026-04-29 14:36 52.24262 6.04578 15 ft 34 kts 84°
2026-04-29 14:36 52.24292 6.05185 68 ft 65 kts 86°
2026-04-29 14:37 52.24330 6.05945 283 ft 67 kts 85°
2026-04-29 14:37 52.24377 6.06777 412 ft 79 kts 81°
2026-04-29 14:37 52.24733 6.07429 613 ft 85 kts 38°
2026-04-29 14:37 52.25262 6.07845 764 ft 89 kts 35°
2026-04-29 14:38 52.25863 6.08197 886 ft 97 kts
2026-04-29 14:38 52.26315 6.07336 986 ft 118 kts 270°
2026-04-29 14:38 52.26130 6.05973 903 ft 134 kts 256°
2026-04-29 14:38 52.25991 6.04464 1005 ft 131 kts 270°
2026-04-29 14:39 52.25985 6.03054 1133 ft 114 kts 277°
2026-04-29 14:39 52.25737 6.01947 1228 ft 104 kts 192°
2026-04-29 14:39 52.25029 6.01798 877 ft 105 kts 162°
2026-04-29 14:39 52.24431 6.02012 652 ft 71 kts 133°
2026-04-29 14:40 52.24214 6.02627 442 ft 60 kts 92°
2026-04-29 14:40 52.24206 6.03268 237 ft 54 kts 86°
2026-04-29 14:40 52.24229 6.03847 79 ft 49 kts 85°
2026-04-29 14:40 52.24253 6.04338 16 ft 32 kts 87°
2026-04-29 14:41 52.24268 6.04682 13 ft 46 kts 85°
2026-04-29 14:41 52.24300 6.05387 64 ft 72 kts 86°
2026-04-29 14:41 52.24337 6.06224 242 ft 78 kts 84°
2026-04-29 14:41 52.24471 6.07095 391 ft 84 kts 55°
2026-04-29 14:42 52.24962 6.07612 486 ft 81 kts 35°
2026-04-29 14:42 52.25450 6.08025 535 ft 78 kts 36°
2026-04-29 14:42 52.26040 6.08061 596 ft 92 kts 353°
2026-04-29 14:42 52.26388 6.07192 601 ft 114 kts 254°
2026-04-29 14:43 52.26198 6.05934 588 ft 113 kts 259°
2026-04-29 14:43 52.26070 6.04636 687 ft 124 kts 265°
2026-04-29 14:43 52.26024 6.03223 733 ft 125 kts 268°
2026-04-29 14:43 52.25888 6.01854 809 ft 119 kts 229°
2026-04-29 14:44 52.25246 6.01576 595 ft 93 kts 159°
2026-04-29 14:44 52.24607 6.01784 454 ft 89 kts 152°
2026-04-29 14:44 52.24203 6.02323 355 ft 69 kts 103°
2026-04-29 14:44 52.24186 6.03006 252 ft 53 kts 83°
2026-04-29 14:45 52.24219 6.03651 109 ft 56 kts 85°
2026-04-29 14:45 52.24247 6.04218 25 ft 46 kts 88°
2026-04-29 14:45 52.24266 6.04670 13 ft 49 kts 85°
2026-04-29 14:45 52.24295 6.05390 120 ft 70 kts 87°
2026-04-29 14:46 52.24338 6.06170 389 ft 65 kts 82°
2026-04-29 14:46 52.24474 6.06942 512 ft 80 kts 62°
2026-04-29 14:46 52.24987 6.07535 542 ft 93 kts 38°
2026-04-29 14:46 52.25560 6.08149 485 ft 102 kts 43°
2026-04-29 14:47 52.26234 6.08261 549 ft 117 kts 328°
2026-04-29 14:47 52.26242 6.06911 432 ft 125 kts 258°
2026-04-29 14:47 52.26076 6.05537 482 ft 122 kts 264°
2026-04-29 14:47 52.25991 6.04139 669 ft 129 kts 264°
2026-04-29 14:48 52.25884 6.02620 587 ft 133 kts 262°
2026-04-29 14:48 52.25416 6.01668 628 ft 110 kts 172°
2026-04-29 14:48 52.24735 6.01874 496 ft 89 kts 160°
2026-04-29 14:48 52.24233 6.02306 385 ft 75 kts 106°
2026-04-29 14:49 52.24201 6.03048 220 ft 61 kts 85°
2026-04-29 14:49 52.24226 6.03709 90 ft 55 kts 86°
2026-04-29 14:49 52.24251 6.04301 16 ft 44 kts 87°
2026-04-29 14:49 52.24264 6.04656 14 ft 28 kts 86°
2026-04-29 14:50 52.24290 6.05175 19 ft 65 kts 86°
2026-04-29 14:50 52.24322 6.05953 181 ft 74 kts 86°
2026-04-29 14:50 52.24461 6.06774 372 ft 79 kts 53°
2026-04-29 14:50 52.24998 6.07326 481 ft 97 kts 36°
2026-04-29 14:51 52.25609 6.07942 516 ft 107 kts 39°
2026-04-29 14:51 52.26324 6.08124 543 ft 115 kts 339°
2026-04-29 14:51 52.26471 6.06814 520 ft 135 kts 249°
2026-04-29 14:51 52.26237 6.05267 532 ft 143 kts 258°
2026-04-29 14:52 52.26018 6.03706 681 ft 140 kts 255°
2026-04-29 14:52 52.25734 6.02218 745 ft 134 kts 223°
2026-04-29 14:52 52.25042 6.02089 691 ft 92 kts 163°
2026-04-29 14:52 52.24528 6.02354 577 ft 79 kts 133°
2026-04-29 14:53 52.24265 6.03145 290 ft 79 kts 99°
2026-04-29 14:53 52.24241 6.03945 53 ft 58 kts 89°
2026-04-29 14:53 52.24255 6.04421 16 ft 29 kts 85°
2026-04-29 14:53 52.24268 6.04716 13 ft 28 kts 87°
2026-04-29 14:54 52.24247 6.04894 16 ft 12 kts 171°
2026-04-29 14:54 52.24183 6.04851 16 ft 14 kts 265°
2026-04-29 14:54 52.24176 6.04667 16 ft 18 kts 266°
2026-04-29 14:54 52.24165 6.04478 16 ft 16 kts 263°
2026-04-29 14:55 52.24157 6.04307 16 ft 14 kts 269°
2026-04-29 14:55 52.24176 6.04240 16 ft 6 kts 343°
2026-04-29 14:55 52.24205 6.04207 16 ft 5 kts 325°
2026-04-29 14:55 52.24207 6.04205 16 ft 0 kts 324°
2026-04-29 14:56 52.24239 6.04187 16 ft 10 kts 25°
2026-04-29 14:56 52.24260 6.04489 15 ft 50 kts 87°
2026-04-29 14:56 52.24288 6.05223 104 ft 72 kts 87°
2026-04-29 14:57 52.24321 6.06009 356 ft 68 kts 85°
2026-04-29 14:57 52.24399 6.06774 603 ft 72 kts 65°
2026-04-29 14:57 52.24855 6.07430 712 ft 96 kts 42°
2026-04-29 14:57 52.25429 6.08025 838 ft 104 kts 39°
2026-04-29 14:58 52.26228 6.08033 865 ft 124 kts 359°
2026-04-29 14:58 52.26979 6.07244 940 ft 139 kts 318°
2026-04-29 14:58 52.27593 6.06043 1019 ft 137 kts 321°
2026-04-29 14:58 52.28079 6.04639 1093 ft 145 kts 298°
2026-04-29 14:59 52.28466 6.03125 1172 ft 145 kts 300°
2026-04-29 14:59 52.28859 6.01614 1245 ft 144 kts 300°
2026-04-29 14:59 52.29253 6.00116 1322 ft 142 kts 300°
2026-04-29 14:59 52.29661 5.98645 1400 ft 142 kts 300°
2026-04-29 15:00 52.30126 5.97266 1464 ft 137 kts 319°
2026-04-29 15:00 52.30785 5.96154 1503 ft 138 kts 320°
2026-04-29 15:00 52.31443 5.95007 1501 ft 139 kts 320°
2026-04-29 15:00 52.32121 5.93839 1513 ft 141 kts 321°
2026-04-29 15:01 52.32784 5.92658 1516 ft 142 kts 320°
2026-04-29 15:01 52.33442 5.91469 1513 ft 144 kts 320°
2026-04-29 15:01 52.34111 5.90255 1513 ft 144 kts 320°
2026-04-29 15:01 52.34776 5.89028 1511 ft 144 kts 321°
2026-04-29 15:02 52.35426 5.87805 1499 ft 139 kts 320°
2026-04-29 15:02 52.36052 5.86638 1487 ft 136 kts 323°
2026-04-29 15:02 52.36732 5.85501 1324 ft 142 kts 326°
2026-04-29 15:02 52.37479 5.84337 1058 ft 153 kts 324°
2026-04-29 15:03 52.38179 5.83141 1169 ft 140 kts 321°
2026-04-29 15:03 52.38802 5.81958 1304 ft 135 kts 320°
2026-04-29 15:03 52.39412 5.80809 1463 ft 132 kts 320°
2026-04-29 15:03 52.40024 5.79663 1509 ft 137 kts 320°
2026-04-29 15:04 52.40643 5.78474 1496 ft 137 kts 310°
2026-04-29 15:04 52.40926 5.76998 1504 ft 134 kts 291°
2026-04-29 15:04 52.41170 5.75553 1500 ft 130 kts 291°
2026-04-29 15:04 52.41394 5.74130 1507 ft 131 kts 284°
2026-04-29 15:05 52.41275 5.72632 1514 ft 134 kts 259°
2026-04-29 15:05 52.41168 5.71640 1521 ft 133 kts 261°
2026-04-29 15:05 52.40957 5.69674 1521 ft 132 kts 260°
2026-04-29 15:05 52.40738 5.68267 1501 ft 120 kts 250°
2026-04-29 15:06 52.40505 5.67036 1502 ft 106 kts 250°
2026-04-29 15:06 52.40259 5.65933 1504 ft 100 kts 239°
2026-04-29 15:06 52.39950 5.64862 1563 ft 110 kts 240°
2026-04-29 15:06 52.39687 5.63611 1513 ft 116 kts 273°
2026-04-29 15:07 52.39774 5.62377 1483 ft 104 kts 299°
2026-04-29 15:07 52.39988 5.61288 1476 ft 98 kts 296°
2026-04-29 15:07 52.40215 5.60227 1390 ft 98 kts 313°
2026-04-29 15:07 52.40611 5.59337 1330 ft 98 kts 320°
2026-04-29 15:08 52.41019 5.58424 1256 ft 99 kts 320°
2026-04-29 15:08 52.41423 5.57515 1179 ft 98 kts 320°
2026-04-29 15:08 52.41858 5.56649 1105 ft 97 kts 326°
2026-04-29 15:08 52.42320 5.55825 1037 ft 99 kts 330°
2026-04-29 15:09 52.42792 5.55057 988 ft 92 kts 330°
2026-04-29 15:09 52.43213 5.54327 979 ft 83 kts 331°
2026-04-29 15:09 52.43592 5.53647 996 ft 79 kts 339°
2026-04-29 15:09 52.43885 5.53313 1008 ft 80 kts 340°
2026-04-29 15:10 52.44324 5.52758 1010 ft 88 kts 341°
2026-04-29 15:10 52.45019 5.51932 1007 ft 98 kts 340°
2026-04-29 15:10 52.45402 5.51502 1006 ft 100 kts 341°
2026-04-29 15:10 52.45992 5.50860 1006 ft 102 kts 340°
2026-04-29 15:11 52.46239 5.49867 802 ft 121 kts 228°
2026-04-29 15:11 52.45704 5.48817 584 ft 119 kts 223°
2026-04-29 15:11 52.45124 5.47860 492 ft 119 kts 219°
2026-04-29 15:11 52.44483 5.47577 456 ft 99 kts 135°
2026-04-29 15:12 52.43992 5.48376 378 ft 92 kts 116°
2026-04-29 15:12 52.44028 5.49118 173 ft 60 kts 50°
2026-04-29 15:12 52.44290 5.49593 122 ft 50 kts 48°
2026-04-29 15:12 52.44524 5.50026 63 ft 52 kts 47°
2026-04-29 15:13 52.44762 5.50457 7 ft 52 kts 47°
2026-04-29 15:13 52.44947 5.50790 -9 ft 25 kts 44°
2026-04-29 15:13 52.45081 5.51022 -9 ft 34 kts 45°
2026-04-29 15:13 52.45206 5.51250 -7 ft 26 kts 46°
2026-04-29 15:14 52.45317 5.51478 -7 ft 18 kts 95°
2026-04-29 15:14 52.45248 5.51611 -9 ft 14 kts 136°
2026-04-29 15:14 52.45251 5.51725 -9 ft 13 kts 49°
2026-04-29 15:14 52.45338 5.51878 -9 ft 22 kts 47°
2026-04-29 15:15 52.45437 5.52054 -9 ft 19 kts 48°
2026-04-29 15:15 52.45511 5.52189 -9 ft 13 kts 47°
2026-04-29 15:15 52.45569 5.52293 -9 ft 11 kts 47°
2026-04-29 15:15 52.45567 5.52379 -9 ft 7 kts 76°
2026-04-29 15:16 52.45596 5.52440 -9 ft 6 kts 36°
2026-04-29 15:16 52.45604 5.52439 -9 ft 0 kts 316°
2026-04-29 15:16 52.45606 5.52436 -9 ft 0 kts 316°